sensor_id;sensor_type;location;lat;lon;timestamp;P1;durP1;ratioP1;P2;durP2;ratioP2
72974;SDS011;61166;54.228;37.632;2023-06-24T00:00:47;148.10;;;81.55;;
72974;SDS011;61166;54.228;37.632;2023-06-24T00:03:13;172.02;;;90.65;;
72974;SDS011;61166;54.228;37.632;2023-06-24T00:05:40;146.50;;;80.93;;
72974;SDS011;61166;54.228;37.632;2023-06-24T00:08:09;137.80;;;75.53;;
72974;SDS011;61166;54.228;37.632;2023-06-24T00:10:36;120.88;;;69.60;;
72974;SDS011;61166;54.228;37.632;2023-06-24T00:13:03;158.60;;;85.28;;
72974;SDS011;61166;54.228;37.632;2023-06-24T00:15:29;146.75;;;81.10;;
72974;SDS011;61166;54.228;37.632;2023-06-24T00:17:56;168.10;;;89.93;;
72974;SDS011;61166;54.228;37.632;2023-06-24T00:20:22;162.17;;;87.60;;
72974;SDS011;61166;54.228;37.632;2023-06-24T00:22:48;88.20;;;55.72;;
72974;SDS011;61166;54.228;37.632;2023-06-24T00:25:15;255.60;;;113.72;;
72974;SDS011;61166;54.228;37.632;2023-06-24T00:27:41;206.55;;;101.20;;
72974;SDS011;61166;54.228;37.632;2023-06-24T00:30:08;174.70;;;89.63;;
72974;SDS011;61166;54.228;37.632;2023-06-24T00:32:35;73.63;;;49.00;;
72974;SDS011;61166;54.228;37.632;2023-06-24T00:35:01;161.23;;;86.00;;
72974;SDS011;61166;54.228;37.632;2023-06-24T00:37:28;196.60;;;97.32;;
72974;SDS011;61166;54.228;37.632;2023-06-24T00:39:54;187.60;;;94.18;;
72974;SDS011;61166;54.228;37.632;2023-06-24T00:42:20;192.63;;;95.40;;
72974;SDS011;61166;54.228;37.632;2023-06-24T00:44:47;166.80;;;86.97;;
72974;SDS011;61166;54.228;37.632;2023-06-24T00:47:14;139.40;;;79.57;;
72974;SDS011;61166;54.228;37.632;2023-06-24T00:49:41;155.55;;;85.82;;
72974;SDS011;61166;54.228;37.632;2023-06-24T00:52:07;263.73;;;117.07;;
72974;SDS011;61166;54.228;37.632;2023-06-24T00:54:34;288.73;;;125.05;;
72974;SDS011;61166;54.228;37.632;2023-06-24T00:57:00;190.00;;;96.87;;
72974;SDS011;61166;54.228;37.632;2023-06-24T00:59:27;171.80;;;91.78;;
72974;SDS011;61166;54.228;37.632;2023-06-24T01:01:54;137.32;;;80.30;;
72974;SDS011;61166;54.228;37.632;2023-06-24T01:04:21;137.07;;;83.10;;
72974;SDS011;61166;54.228;37.632;2023-06-24T01:06:48;126.50;;;76.50;;
72974;SDS011;61166;54.228;37.632;2023-06-24T01:09:14;122.40;;;74.60;;
72974;SDS011;61166;54.228;37.632;2023-06-24T01:11:41;112.60;;;70.43;;
72974;SDS011;61166;54.228;37.632;2023-06-24T01:14:07;101.10;;;66.40;;
72974;SDS011;61166;54.228;37.632;2023-06-24T01:16:54;98.90;;;60.80;;
72974;SDS011;61166;54.228;37.632;2023-06-24T01:22:08;232.77;;;120.10;;
72974;SDS011;61166;54.228;37.632;2023-06-24T01:24:41;167.18;;;95.93;;
72974;SDS011;61166;54.228;37.632;2023-06-24T01:34:52;48.80;;;27.73;;
72974;SDS011;61166;54.228;37.632;2023-06-24T01:40:52;57.60;;;34.92;;
72974;SDS011;61166;54.228;37.632;2023-06-24T01:42:47;47.30;;;28.38;;
72974;SDS011;61166;54.228;37.632;2023-06-24T01:45:16;42.13;;;25.08;;
72974;SDS011;61166;54.228;37.632;2023-06-24T01:47:45;50.70;;;28.60;;
72974;SDS011;61166;54.228;37.632;2023-06-24T01:50:13;36.25;;;21.02;;
72974;SDS011;61166;54.228;37.632;2023-06-24T01:52:43;36.55;;;21.35;;
72974;SDS011;61166;54.228;37.632;2023-06-24T01:55:10;40.25;;;23.75;;
72974;SDS011;61166;54.228;37.632;2023-06-24T01:57:37;36.58;;;19.15;;
72974;SDS011;61166;54.228;37.632;2023-06-24T02:00:07;30.23;;;18.00;;
72974;SDS011;61166;54.228;37.632;2023-06-24T02:02:34;30.25;;;17.40;;
72974;SDS011;61166;54.228;37.632;2023-06-24T02:05:01;24.58;;;15.80;;
72974;SDS011;61166;54.228;37.632;2023-06-24T02:07:28;32.20;;;17.83;;
72974;SDS011;61166;54.228;37.632;2023-06-24T02:09:55;29.38;;;16.73;;
72974;SDS011;61166;54.228;37.632;2023-06-24T02:12:23;33.97;;;16.10;;
72974;SDS011;61166;54.228;37.632;2023-06-24T02:14:50;26.92;;;16.25;;
72974;SDS011;61166;54.228;37.632;2023-06-24T02:17:17;25.23;;;15.65;;
72974;SDS011;61166;54.228;37.632;2023-06-24T02:19:43;26.17;;;15.15;;
72974;SDS011;61166;54.228;37.632;2023-06-24T02:22:11;26.35;;;15.52;;
72974;SDS011;61166;54.228;37.632;2023-06-24T02:24:38;24.80;;;15.57;;
72974;SDS011;61166;54.228;37.632;2023-06-24T02:27:05;26.48;;;16.70;;
72974;SDS011;61166;54.228;37.632;2023-06-24T02:29:32;27.92;;;16.08;;
72974;SDS011;61166;54.228;37.632;2023-06-24T02:32:00;30.20;;;16.58;;
72974;SDS011;61166;54.228;37.632;2023-06-24T02:34:27;26.52;;;15.82;;
72974;SDS011;61166;54.228;37.632;2023-06-24T02:36:54;24.50;;;15.27;;
72974;SDS011;61166;54.228;37.632;2023-06-24T02:39:20;25.55;;;15.15;;
72974;SDS011;61166;54.228;37.632;2023-06-24T02:41:47;24.08;;;14.52;;
72974;SDS011;61166;54.228;37.632;2023-06-24T02:44:13;22.80;;;14.48;;
72974;SDS011;61166;54.228;37.632;2023-06-24T02:46:40;25.55;;;15.05;;
72974;SDS011;61166;54.228;37.632;2023-06-24T02:49:08;23.37;;;14.27;;
72974;SDS011;61166;54.228;37.632;2023-06-24T02:51:35;24.27;;;12.77;;
72974;SDS011;61166;54.228;37.632;2023-06-24T02:54:03;22.67;;;13.57;;
72974;SDS011;61166;54.228;37.632;2023-06-24T02:56:29;20.92;;;13.75;;
72974;SDS011;61166;54.228;37.632;2023-06-24T02:58:56;23.00;;;14.35;;
72974;SDS011;61166;54.228;37.632;2023-06-24T03:01:22;21.07;;;13.97;;
72974;SDS011;61166;54.228;37.632;2023-06-24T03:03:49;25.58;;;13.82;;
72974;SDS011;61166;54.228;37.632;2023-06-24T03:06:16;22.63;;;14.45;;
72974;SDS011;61166;54.228;37.632;2023-06-24T03:08:43;24.38;;;14.60;;
72974;SDS011;61166;54.228;37.632;2023-06-24T03:11:11;23.92;;;15.30;;
72974;SDS011;61166;54.228;37.632;2023-06-24T03:13:38;21.63;;;14.40;;
72974;SDS011;61166;54.228;37.632;2023-06-24T03:16:04;21.67;;;13.50;;
72974;SDS011;61166;54.228;37.632;2023-06-24T03:18:31;21.42;;;14.30;;
72974;SDS011;61166;54.228;37.632;2023-06-24T03:20:57;18.40;;;12.98;;
72974;SDS011;61166;54.228;37.632;2023-06-24T03:23:24;22.55;;;12.88;;
72974;SDS011;61166;54.228;37.632;2023-06-24T03:25:50;21.47;;;13.20;;
72974;SDS011;61166;54.228;37.632;2023-06-24T03:28:16;18.05;;;13.60;;
72974;SDS011;61166;54.228;37.632;2023-06-24T03:30:43;21.83;;;14.60;;
72974;SDS011;61166;54.228;37.632;2023-06-24T03:33:09;19.67;;;13.82;;
72974;SDS011;61166;54.228;37.632;2023-06-24T03:35:36;18.20;;;13.45;;
72974;SDS011;61166;54.228;37.632;2023-06-24T03:38:02;21.77;;;14.10;;
72974;SDS011;61166;54.228;37.632;2023-06-24T03:40:29;16.83;;;12.30;;
72974;SDS011;61166;54.228;37.632;2023-06-24T03:42:55;17.70;;;13.02;;
72974;SDS011;61166;54.228;37.632;2023-06-24T03:45:22;16.60;;;10.23;;
72974;SDS011;61166;54.228;37.632;2023-06-24T03:47:48;14.43;;;11.07;;
72974;SDS011;61166;54.228;37.632;2023-06-24T03:50:15;17.90;;;13.43;;
72974;SDS011;61166;54.228;37.632;2023-06-24T03:52:41;15.90;;;10.93;;
72974;SDS011;61166;54.228;37.632;2023-06-24T03:55:07;14.93;;;10.45;;
72974;SDS011;61166;54.228;37.632;2023-06-24T03:57:34;14.75;;;10.75;;
72974;SDS011;61166;54.228;37.632;2023-06-24T04:00:00;15.25;;;9.65;;
72974;SDS011;61166;54.228;37.632;2023-06-24T04:02:27;14.07;;;9.43;;
72974;SDS011;61166;54.228;37.632;2023-06-24T04:04:53;13.32;;;9.25;;
72974;SDS011;61166;54.228;37.632;2023-06-24T04:07:20;15.85;;;10.02;;
72974;SDS011;61166;54.228;37.632;2023-06-24T04:09:46;15.52;;;10.13;;
72974;SDS011;61166;54.228;37.632;2023-06-24T04:12:13;15.77;;;10.57;;
72974;SDS011;61166;54.228;37.632;2023-06-24T04:14:39;14.83;;;9.70;;
72974;SDS011;61166;54.228;37.632;2023-06-24T04:17:06;18.65;;;10.38;;
72974;SDS011;61166;54.228;37.632;2023-06-24T04:19:32;15.05;;;9.90;;
72974;SDS011;61166;54.228;37.632;2023-06-24T04:21:58;16.77;;;10.68;;
72974;SDS011;61166;54.228;37.632;2023-06-24T04:24:25;20.38;;;10.25;;
72974;SDS011;61166;54.228;37.632;2023-06-24T04:26:51;17.40;;;10.20;;
72974;SDS011;61166;54.228;37.632;2023-06-24T04:29:18;18.20;;;11.15;;
72974;SDS011;61166;54.228;37.632;2023-06-24T04:31:44;18.60;;;10.68;;
72974;SDS011;61166;54.228;37.632;2023-06-24T04:34:11;18.52;;;10.85;;
72974;SDS011;61166;54.228;37.632;2023-06-24T04:36:37;21.15;;;10.38;;
72974;SDS011;61166;54.228;37.632;2023-06-24T04:39:03;15.33;;;9.63;;
72974;SDS011;61166;54.228;37.632;2023-06-24T04:41:30;15.40;;;10.00;;
72974;SDS011;61166;54.228;37.632;2023-06-24T04:43:56;14.50;;;10.15;;
72974;SDS011;61166;54.228;37.632;2023-06-24T04:46:23;16.75;;;9.95;;
72974;SDS011;61166;54.228;37.632;2023-06-24T04:48:49;14.38;;;8.52;;
72974;SDS011;61166;54.228;37.632;2023-06-24T04:51:15;12.77;;;8.70;;
72974;SDS011;61166;54.228;37.632;2023-06-24T04:53:42;16.08;;;8.90;;
72974;SDS011;61166;54.228;37.632;2023-06-24T04:56:08;14.40;;;8.88;;
72974;SDS011;61166;54.228;37.632;2023-06-24T04:58:35;13.65;;;8.13;;
72974;SDS011;61166;54.228;37.632;2023-06-24T05:01:01;13.27;;;8.75;;
72974;SDS011;61166;54.228;37.632;2023-06-24T05:03:28;12.53;;;8.43;;
72974;SDS011;61166;54.228;37.632;2023-06-24T05:05:54;16.40;;;8.93;;
72974;SDS011;61166;54.228;37.632;2023-06-24T05:08:21;18.38;;;10.45;;
72974;SDS011;61166;54.228;37.632;2023-06-24T05:10:47;14.07;;;9.75;;
72974;SDS011;61166;54.228;37.632;2023-06-24T05:13:14;14.90;;;9.82;;
72974;SDS011;61166;54.228;37.632;2023-06-24T05:15:40;16.57;;;9.40;;
72974;SDS011;61166;54.228;37.632;2023-06-24T05:18:07;18.33;;;9.30;;
72974;SDS011;61166;54.228;37.632;2023-06-24T05:20:33;14.13;;;9.70;;
72974;SDS011;61166;54.228;37.632;2023-06-24T05:22:59;14.13;;;10.23;;
72974;SDS011;61166;54.228;37.632;2023-06-24T05:25:26;13.93;;;9.30;;
72974;SDS011;61166;54.228;37.632;2023-06-24T05:27:52;17.57;;;9.97;;
72974;SDS011;61166;54.228;37.632;2023-06-24T05:30:19;15.68;;;10.00;;
72974;SDS011;61166;54.228;37.632;2023-06-24T05:32:45;14.68;;;9.15;;
72974;SDS011;61166;54.228;37.632;2023-06-24T05:35:12;19.75;;;11.07;;
72974;SDS011;61166;54.228;37.632;2023-06-24T05:37:38;12.85;;;9.07;;
72974;SDS011;61166;54.228;37.632;2023-06-24T05:40:05;14.13;;;9.87;;
72974;SDS011;61166;54.228;37.632;2023-06-24T05:42:31;13.15;;;10.30;;
72974;SDS011;61166;54.228;37.632;2023-06-24T05:44:58;17.02;;;10.20;;
72974;SDS011;61166;54.228;37.632;2023-06-24T05:47:24;13.52;;;9.40;;
72974;SDS011;61166;54.228;37.632;2023-06-24T05:49:51;15.63;;;10.32;;
72974;SDS011;61166;54.228;37.632;2023-06-24T05:52:17;14.77;;;10.83;;
72974;SDS011;61166;54.228;37.632;2023-06-24T05:54:44;11.05;;;9.10;;
72974;SDS011;61166;54.228;37.632;2023-06-24T05:57:10;14.38;;;9.77;;
72974;SDS011;61166;54.228;37.632;2023-06-24T05:59:37;13.07;;;10.13;;
72974;SDS011;61166;54.228;37.632;2023-06-24T06:02:03;14.32;;;10.75;;
72974;SDS011;61166;54.228;37.632;2023-06-24T06:04:29;12.30;;;9.93;;
72974;SDS011;61166;54.228;37.632;2023-06-24T06:06:57;15.48;;;11.23;;
72974;SDS011;61166;54.228;37.632;2023-06-24T06:09:23;16.20;;;9.63;;
72974;SDS011;61166;54.228;37.632;2023-06-24T06:11:50;13.82;;;11.35;;
72974;SDS011;61166;54.228;37.632;2023-06-24T06:14:16;12.52;;;11.23;;
72974;SDS011;61166;54.228;37.632;2023-06-24T06:16:43;12.57;;;10.30;;
72974;SDS011;61166;54.228;37.632;2023-06-24T06:19:09;15.63;;;12.13;;
72974;SDS011;61166;54.228;37.632;2023-06-24T06:21:36;14.60;;;12.13;;
72974;SDS011;61166;54.228;37.632;2023-06-24T06:24:03;14.73;;;11.55;;
72974;SDS011;61166;54.228;37.632;2023-06-24T06:26:29;12.52;;;11.02;;
72974;SDS011;61166;54.228;37.632;2023-06-24T06:28:56;12.87;;;10.53;;
72974;SDS011;61166;54.228;37.632;2023-06-24T06:31:23;15.00;;;11.10;;
72974;SDS011;61166;54.228;37.632;2023-06-24T06:33:49;13.18;;;11.70;;
72974;SDS011;61166;54.228;37.632;2023-06-24T06:36:15;12.05;;;10.68;;
72974;SDS011;61166;54.228;37.632;2023-06-24T06:38:42;15.88;;;11.20;;
72974;SDS011;61166;54.228;37.632;2023-06-24T06:41:08;14.40;;;12.00;;
72974;SDS011;61166;54.228;37.632;2023-06-24T06:43:35;13.63;;;12.23;;
72974;SDS011;61166;54.228;37.632;2023-06-24T06:46:01;14.00;;;11.77;;
72974;SDS011;61166;54.228;37.632;2023-06-24T06:48:28;14.60;;;12.32;;
72974;SDS011;61166;54.228;37.632;2023-06-24T06:50:54;14.95;;;13.52;;
72974;SDS011;61166;54.228;37.632;2023-06-24T06:53:21;14.00;;;12.63;;
72974;SDS011;61166;54.228;37.632;2023-06-24T06:55:47;14.20;;;12.13;;
72974;SDS011;61166;54.228;37.632;2023-06-24T06:58:13;14.32;;;13.02;;
72974;SDS011;61166;54.228;37.632;2023-06-24T07:00:40;14.15;;;12.65;;
72974;SDS011;61166;54.228;37.632;2023-06-24T07:03:06;14.82;;;13.52;;
72974;SDS011;61166;54.228;37.632;2023-06-24T07:05:33;15.20;;;13.73;;
72974;SDS011;61166;54.228;37.632;2023-06-24T07:08:05;14.77;;;13.13;;
72974;SDS011;61166;54.228;37.632;2023-06-24T07:10:31;15.00;;;13.50;;
72974;SDS011;61166;54.228;37.632;2023-06-24T07:12:58;15.63;;;13.40;;
72974;SDS011;61166;54.228;37.632;2023-06-24T07:15:25;16.50;;;14.98;;
72974;SDS011;61166;54.228;37.632;2023-06-24T07:17:52;17.17;;;15.37;;
72974;SDS011;61166;54.228;37.632;2023-06-24T07:20:19;16.90;;;15.25;;
72974;SDS011;61166;54.228;37.632;2023-06-24T07:22:45;16.27;;;14.88;;
72974;SDS011;61166;54.228;37.632;2023-06-24T07:25:12;15.77;;;14.43;;
72974;SDS011;61166;54.228;37.632;2023-06-24T07:27:38;17.50;;;15.93;;
72974;SDS011;61166;54.228;37.632;2023-06-24T07:30:05;16.57;;;14.97;;
72974;SDS011;61166;54.228;37.632;2023-06-24T07:32:32;16.40;;;14.98;;
72974;SDS011;61166;54.228;37.632;2023-06-24T07:34:58;17.45;;;16.15;;
72974;SDS011;61166;54.228;37.632;2023-06-24T07:37:25;18.05;;;16.65;;
72974;SDS011;61166;54.228;37.632;2023-06-24T07:39:51;14.93;;;13.68;;
72974;SDS011;61166;54.228;37.632;2023-06-24T07:42:18;15.83;;;14.53;;
72974;SDS011;61166;54.228;37.632;2023-06-24T07:44:45;15.10;;;13.80;;
72974;SDS011;61166;54.228;37.632;2023-06-24T07:47:11;17.35;;;15.95;;
72974;SDS011;61166;54.228;37.632;2023-06-24T07:49:38;16.77;;;15.48;;
72974;SDS011;61166;54.228;37.632;2023-06-24T07:52:04;15.38;;;14.07;;
72974;SDS011;61166;54.228;37.632;2023-06-24T07:54:31;14.80;;;13.50;;
72974;SDS011;61166;54.228;37.632;2023-06-24T07:56:57;17.48;;;15.95;;
72974;SDS011;61166;54.228;37.632;2023-06-24T07:59:24;16.88;;;15.25;;
72974;SDS011;61166;54.228;37.632;2023-06-24T08:01:51;16.60;;;15.18;;
72974;SDS011;61166;54.228;37.632;2023-06-24T08:04:17;12.38;;;11.23;;
72974;SDS011;61166;54.228;37.632;2023-06-24T08:06:44;13.60;;;12.17;;
72974;SDS011;61166;54.228;37.632;2023-06-24T08:09:10;13.05;;;11.95;;
72974;SDS011;61166;54.228;37.632;2023-06-24T08:11:37;12.55;;;11.35;;
72974;SDS011;61166;54.228;37.632;2023-06-24T08:14:03;11.95;;;10.80;;
72974;SDS011;61166;54.228;37.632;2023-06-24T08:16:30;12.15;;;10.32;;
72974;SDS011;61166;54.228;37.632;2023-06-24T08:18:56;13.93;;;12.53;;
72974;SDS011;61166;54.228;37.632;2023-06-24T08:21:22;14.48;;;12.60;;
72974;SDS011;61166;54.228;37.632;2023-06-24T08:23:49;10.00;;;8.90;;
72974;SDS011;61166;54.228;37.632;2023-06-24T08:26:15;12.15;;;10.95;;
72974;SDS011;61166;54.228;37.632;2023-06-24T08:28:45;13.02;;;11.70;;
72974;SDS011;61166;54.228;37.632;2023-06-24T08:31:11;12.60;;;11.43;;
72974;SDS011;61166;54.228;37.632;2023-06-24T08:33:38;12.00;;;10.93;;
72974;SDS011;61166;54.228;37.632;2023-06-24T08:36:04;11.27;;;9.38;;
72974;SDS011;61166;54.228;37.632;2023-06-24T08:38:31;9.13;;;8.13;;
72974;SDS011;61166;54.228;37.632;2023-06-24T08:40:57;13.25;;;12.00;;
72974;SDS011;61166;54.228;37.632;2023-06-24T08:43:24;11.97;;;10.60;;
72974;SDS011;61166;54.228;37.632;2023-06-24T08:45:50;10.10;;;9.07;;
72974;SDS011;61166;54.228;37.632;2023-06-24T08:48:17;10.57;;;9.48;;
72974;SDS011;61166;54.228;37.632;2023-06-24T08:50:45;13.20;;;10.95;;
72974;SDS011;61166;54.228;37.632;2023-06-24T08:53:12;12.32;;;11.05;;
72974;SDS011;61166;54.228;37.632;2023-06-24T08:55:40;11.70;;;10.67;;
72974;SDS011;61166;54.228;37.632;2023-06-24T08:58:09;11.25;;;9.57;;
72974;SDS011;61166;54.228;37.632;2023-06-24T09:00:35;12.65;;;9.80;;
72974;SDS011;61166;54.228;37.632;2023-06-24T09:03:01;11.70;;;8.88;;
72974;SDS011;61166;54.228;37.632;2023-06-24T09:05:28;11.70;;;10.55;;
72974;SDS011;61166;54.228;37.632;2023-06-24T09:07:54;12.67;;;9.80;;
72974;SDS011;61166;54.228;37.632;2023-06-24T09:10:42;12.55;;;9.57;;
72974;SDS011;61166;54.228;37.632;2023-06-24T09:13:07;10.60;;;9.13;;
72974;SDS011;61166;54.228;37.632;2023-06-24T09:15:34;14.63;;;11.27;;
72974;SDS011;61166;54.228;37.632;2023-06-24T09:18:02;12.30;;;10.90;;
72974;SDS011;61166;54.228;37.632;2023-06-24T09:20:32;11.00;;;9.93;;
72974;SDS011;61166;54.228;37.632;2023-06-24T09:22:59;11.48;;;10.23;;
72974;SDS011;61166;54.228;37.632;2023-06-24T09:25:25;12.65;;;11.27;;
72974;SDS011;61166;54.228;37.632;2023-06-24T09:27:52;14.43;;;12.73;;
72974;SDS011;61166;54.228;37.632;2023-06-24T09:30:20;14.00;;;12.60;;
72974;SDS011;61166;54.228;37.632;2023-06-24T09:32:50;13.27;;;11.97;;
72974;SDS011;61166;54.228;37.632;2023-06-24T09:35:18;12.52;;;11.40;;
72974;SDS011;61166;54.228;37.632;2023-06-24T09:37:54;12.68;;;11.48;;
72974;SDS011;61166;54.228;37.632;2023-06-24T09:40:21;12.13;;;10.95;;
72974;SDS011;61166;54.228;37.632;2023-06-24T09:42:54;10.15;;;9.23;;
72974;SDS011;61166;54.228;37.632;2023-06-24T09:45:27;12.07;;;10.63;;
72974;SDS011;61166;54.228;37.632;2023-06-24T09:47:54;11.63;;;10.52;;
72974;SDS011;61166;54.228;37.632;2023-06-24T09:50:21;11.05;;;10.05;;
72974;SDS011;61166;54.228;37.632;2023-06-24T09:52:48;11.95;;;9.30;;
72974;SDS011;61166;54.228;37.632;2023-06-24T09:55:16;11.48;;;9.07;;
72974;SDS011;61166;54.228;37.632;2023-06-24T09:57:44;9.27;;;8.17;;
72974;SDS011;61166;54.228;37.632;2023-06-24T10:00:11;13.60;;;9.20;;
72974;SDS011;61166;54.228;37.632;2023-06-24T10:02:39;13.55;;;9.00;;
72974;SDS011;61166;54.228;37.632;2023-06-24T10:05:06;11.48;;;8.88;;
72974;SDS011;61166;54.228;37.632;2023-06-24T10:07:32;12.88;;;9.82;;
72974;SDS011;61166;54.228;37.632;2023-06-24T10:10:03;12.00;;;9.00;;
72974;SDS011;61166;54.228;37.632;2023-06-24T10:12:30;9.80;;;7.50;;
72974;SDS011;61166;54.228;37.632;2023-06-24T10:14:56;11.27;;;8.63;;
72974;SDS011;61166;54.228;37.632;2023-06-24T10:17:22;10.35;;;7.80;;
72974;SDS011;61166;54.228;37.632;2023-06-24T10:19:51;11.43;;;8.10;;
72974;SDS011;61166;54.228;37.632;2023-06-24T10:22:17;10.57;;;7.27;;
72974;SDS011;61166;54.228;37.632;2023-06-24T10:24:47;11.43;;;7.05;;
72974;SDS011;61166;54.228;37.632;2023-06-24T10:27:15;10.13;;;7.88;;
72974;SDS011;61166;54.228;37.632;2023-06-24T10:29:45;10.90;;;7.97;;
72974;SDS011;61166;54.228;37.632;2023-06-24T10:32:12;12.18;;;6.97;;
72974;SDS011;61166;54.228;37.632;2023-06-24T10:34:43;11.43;;;8.23;;
72974;SDS011;61166;54.228;37.632;2023-06-24T10:39:55;11.30;;;7.10;;
72974;SDS011;61166;54.228;37.632;2023-06-24T10:44:48;10.95;;;7.40;;
72974;SDS011;61166;54.228;37.632;2023-06-24T10:47:14;10.20;;;7.23;;
72974;SDS011;61166;54.228;37.632;2023-06-24T10:49:41;9.40;;;6.45;;
72974;SDS011;61166;54.228;37.632;2023-06-24T10:52:08;10.43;;;7.50;;
72974;SDS011;61166;54.228;37.632;2023-06-24T10:54:37;12.07;;;7.53;;
72974;SDS011;61166;54.228;37.632;2023-06-24T10:57:03;10.38;;;7.72;;
72974;SDS011;61166;54.228;37.632;2023-06-24T10:59:43;10.27;;;7.00;;
72974;SDS011;61166;54.228;37.632;2023-06-24T11:02:16;10.02;;;6.70;;
72974;SDS011;61166;54.228;37.632;2023-06-24T11:07:09;9.85;;;7.15;;
72974;SDS011;61166;54.228;37.632;2023-06-24T11:09:36;11.77;;;7.18;;
72974;SDS011;61166;54.228;37.632;2023-06-24T11:12:05;11.30;;;7.33;;
72974;SDS011;61166;54.228;37.632;2023-06-24T11:14:32;9.25;;;6.53;;
72974;SDS011;61166;54.228;37.632;2023-06-24T11:17:00;10.10;;;7.07;;
72974;SDS011;61166;54.228;37.632;2023-06-24T11:19:27;10.13;;;7.68;;
72974;SDS011;61166;54.228;37.632;2023-06-24T11:22:29;10.57;;;6.68;;
72974;SDS011;61166;54.228;37.632;2023-06-24T11:24:56;9.47;;;6.33;;
72974;SDS011;61166;54.228;37.632;2023-06-24T11:27:29;12.07;;;7.93;;
72974;SDS011;61166;54.228;37.632;2023-06-24T11:29:59;12.95;;;9.43;;
72974;SDS011;61166;54.228;37.632;2023-06-24T11:32:35;13.20;;;8.63;;
72974;SDS011;61166;54.228;37.632;2023-06-24T11:35:03;11.38;;;7.60;;
72974;SDS011;61166;54.228;37.632;2023-06-24T11:37:30;12.03;;;7.70;;
72974;SDS011;61166;54.228;37.632;2023-06-24T11:40:03;13.55;;;9.55;;
72974;SDS011;61166;54.228;37.632;2023-06-24T11:42:31;11.60;;;9.05;;
72974;SDS011;61166;54.228;37.632;2023-06-24T11:45:19;11.88;;;8.27;;
72974;SDS011;61166;54.228;37.632;2023-06-24T11:47:46;14.32;;;8.70;;
72974;SDS011;61166;54.228;37.632;2023-06-24T11:50:12;10.40;;;7.67;;
72974;SDS011;61166;54.228;37.632;2023-06-24T11:55:39;10.77;;;6.30;;
72974;SDS011;61166;54.228;37.632;2023-06-24T11:58:01;9.48;;;6.63;;
72974;SDS011;61166;54.228;37.632;2023-06-24T12:00:40;11.15;;;6.35;;
72974;SDS011;61166;54.228;37.632;2023-06-24T12:03:07;9.83;;;5.43;;
72974;SDS011;61166;54.228;37.632;2023-06-24T12:05:37;12.90;;;7.20;;
72974;SDS011;61166;54.228;37.632;2023-06-24T12:08:08;8.25;;;5.35;;
72974;SDS011;61166;54.228;37.632;2023-06-24T12:10:34;13.30;;;5.70;;
72974;SDS011;61166;54.228;37.632;2023-06-24T12:13:02;11.20;;;5.47;;
72974;SDS011;61166;54.228;37.632;2023-06-24T12:15:28;9.43;;;5.30;;
72974;SDS011;61166;54.228;37.632;2023-06-24T12:17:55;10.07;;;7.28;;
72974;SDS011;61166;54.228;37.632;2023-06-24T12:20:23;6.60;;;4.43;;
72974;SDS011;61166;54.228;37.632;2023-06-24T12:22:52;9.38;;;4.57;;
72974;SDS011;61166;54.228;37.632;2023-06-24T12:25:19;7.18;;;4.55;;
72974;SDS011;61166;54.228;37.632;2023-06-24T12:27:45;9.20;;;4.17;;
72974;SDS011;61166;54.228;37.632;2023-06-24T12:30:12;7.40;;;3.47;;
72974;SDS011;61166;54.228;37.632;2023-06-24T12:32:38;7.20;;;4.40;;
72974;SDS011;61166;54.228;37.632;2023-06-24T12:35:05;7.30;;;3.83;;
72974;SDS011;61166;54.228;37.632;2023-06-24T12:37:32;6.18;;;3.63;;
72974;SDS011;61166;54.228;37.632;2023-06-24T12:40:00;6.60;;;4.23;;
72974;SDS011;61166;54.228;37.632;2023-06-24T12:42:26;6.00;;;3.97;;
72974;SDS011;61166;54.228;37.632;2023-06-24T12:44:53;7.78;;;4.38;;
72974;SDS011;61166;54.228;37.632;2023-06-24T12:47:20;8.65;;;3.72;;
72974;SDS011;61166;54.228;37.632;2023-06-24T12:49:47;8.02;;;4.20;;
72974;SDS011;61166;54.228;37.632;2023-06-24T12:52:13;8.80;;;4.17;;
72974;SDS011;61166;54.228;37.632;2023-06-24T12:54:40;6.90;;;3.60;;
72974;SDS011;61166;54.228;37.632;2023-06-24T12:57:07;7.03;;;4.18;;
72974;SDS011;61166;54.228;37.632;2023-06-24T12:59:40;7.35;;;3.65;;
72974;SDS011;61166;54.228;37.632;2023-06-24T13:02:06;8.57;;;3.75;;
72974;SDS011;61166;54.228;37.632;2023-06-24T13:04:33;5.97;;;3.53;;
72974;SDS011;61166;54.228;37.632;2023-06-24T13:06:59;6.07;;;3.65;;
72974;SDS011;61166;54.228;37.632;2023-06-24T13:09:26;5.20;;;3.13;;
72974;SDS011;61166;54.228;37.632;2023-06-24T13:11:52;6.43;;;3.70;;
72974;SDS011;61166;54.228;37.632;2023-06-24T13:14:19;5.80;;;3.65;;
72974;SDS011;61166;54.228;37.632;2023-06-24T13:16:45;7.60;;;3.63;;
72974;SDS011;61166;54.228;37.632;2023-06-24T13:19:12;7.28;;;3.53;;
72974;SDS011;61166;54.228;37.632;2023-06-24T13:21:41;6.30;;;3.25;;
72974;SDS011;61166;54.228;37.632;2023-06-24T13:24:08;7.47;;;2.97;;
72974;SDS011;61166;54.228;37.632;2023-06-24T13:26:34;6.95;;;3.20;;
72974;SDS011;61166;54.228;37.632;2023-06-24T13:29:01;6.23;;;3.27;;
72974;SDS011;61166;54.228;37.632;2023-06-24T13:31:27;7.80;;;3.58;;
72974;SDS011;61166;54.228;37.632;2023-06-24T13:33:54;6.35;;;3.08;;
72974;SDS011;61166;54.228;37.632;2023-06-24T13:36:31;5.95;;;2.65;;
72974;SDS011;61166;54.228;37.632;2023-06-24T13:38:57;5.85;;;3.08;;
72974;SDS011;61166;54.228;37.632;2023-06-24T13:41:24;6.83;;;2.80;;
72974;SDS011;61166;54.228;37.632;2023-06-24T13:43:50;5.43;;;2.90;;
72974;SDS011;61166;54.228;37.632;2023-06-24T13:46:16;7.00;;;3.55;;
72974;SDS011;61166;54.228;37.632;2023-06-24T13:48:43;6.30;;;3.30;;
72974;SDS011;61166;54.228;37.632;2023-06-24T13:51:09;7.70;;;4.68;;
72974;SDS011;61166;54.228;37.632;2023-06-24T13:53:36;9.20;;;5.00;;
72974;SDS011;61166;54.228;37.632;2023-06-24T13:56:02;8.27;;;3.95;;
72974;SDS011;61166;54.228;37.632;2023-06-24T13:58:28;7.32;;;3.80;;
72974;SDS011;61166;54.228;37.632;2023-06-24T14:00:55;7.57;;;4.50;;
72974;SDS011;61166;54.228;37.632;2023-06-24T14:03:21;6.68;;;3.63;;
72974;SDS011;61166;54.228;37.632;2023-06-24T14:05:48;8.40;;;4.47;;
72974;SDS011;61166;54.228;37.632;2023-06-24T14:08:14;11.45;;;6.03;;
72974;SDS011;61166;54.228;37.632;2023-06-24T14:10:41;25.65;;;22.50;;
72974;SDS011;61166;54.228;37.632;2023-06-24T14:13:07;42.78;;;31.65;;
72974;SDS011;61166;54.228;37.632;2023-06-24T14:15:33;103.07;;;65.80;;
72974;SDS011;61166;54.228;37.632;2023-06-24T14:18:00;33.90;;;24.93;;
72974;SDS011;61166;54.228;37.632;2023-06-24T14:20:26;13.88;;;9.45;;
72974;SDS011;61166;54.228;37.632;2023-06-24T14:22:53;8.27;;;5.47;;
72974;SDS011;61166;54.228;37.632;2023-06-24T14:25:19;23.60;;;12.25;;
72974;SDS011;61166;54.228;37.632;2023-06-24T14:27:46;10.68;;;5.90;;
72974;SDS011;61166;54.228;37.632;2023-06-24T14:30:12;7.80;;;4.23;;
72974;SDS011;61166;54.228;37.632;2023-06-24T14:32:39;9.88;;;5.38;;
72974;SDS011;61166;54.228;37.632;2023-06-24T14:35:05;16.80;;;8.27;;
72974;SDS011;61166;54.228;37.632;2023-06-24T14:37:32;11.23;;;4.85;;
72974;SDS011;61166;54.228;37.632;2023-06-24T14:39:59;10.98;;;5.63;;